createdAt,value
2018-06-04T00:01:17.166Z,7.03
2018-06-04T00:03:45.751Z,7.70
2018-06-04T00:06:14.325Z,7.73
2018-06-04T00:08:42.922Z,7.50
2018-06-04T00:11:11.494Z,7.37
2018-06-04T00:13:40.162Z,8.07
2018-06-04T00:16:08.716Z,7.83
2018-06-04T00:18:37.320Z,9.00
2018-06-04T00:21:05.907Z,8.10
2018-06-04T00:23:34.558Z,8.47
2018-06-04T00:26:03.117Z,9.00
2018-06-04T00:28:31.682Z,9.00
2018-06-04T00:31:00.238Z,9.30
2018-06-04T00:33:28.827Z,9.13
2018-06-04T00:35:57.397Z,9.23
2018-06-04T00:38:26.009Z,9.00
2018-06-04T00:40:54.661Z,8.43
2018-06-04T00:43:23.320Z,9.23
2018-06-04T00:45:51.920Z,9.67
2018-06-04T00:48:20.535Z,9.07
2018-06-04T00:50:49.076Z,9.20
2018-06-04T00:53:17.688Z,9.07
2018-06-04T00:55:57.268Z,9.00
2018-06-04T00:58:25.845Z,9.93
2018-06-04T01:00:54.385Z,9.63
2018-06-04T01:03:22.955Z,9.23
2018-06-04T01:05:51.591Z,9.40
2018-06-04T01:08:20.201Z,9.77
2018-06-04T01:10:48.784Z,9.47
2018-06-04T01:13:17.378Z,9.97
2018-06-04T01:15:46.071Z,10.03
2018-06-04T01:18:14.712Z,9.10
2018-06-04T01:20:43.331Z,11.20
2018-06-04T01:23:11.926Z,10.10
2018-06-04T01:25:40.488Z,9.57
2018-06-04T01:28:09.068Z,9.80
2018-06-04T01:30:37.738Z,9.43
2018-06-04T01:33:06.336Z,11.17
2018-06-04T01:35:34.976Z,10.53
2018-06-04T01:38:03.597Z,9.77
2018-06-04T01:40:32.152Z,11.17
2018-06-04T01:43:00.757Z,10.53
2018-06-04T01:45:29.396Z,10.67
2018-06-04T01:47:57.951Z,10.30
2018-06-04T01:50:26.624Z,11.10
2018-06-04T01:52:55.226Z,11.27
2018-06-04T01:55:23.981Z,10.70
2018-06-04T01:57:52.580Z,11.60
2018-06-04T02:00:21.220Z,10.77
2018-06-04T02:02:49.752Z,10.87
2018-06-04T02:05:18.364Z,11.27
2018-06-04T02:07:46.995Z,10.97
2018-06-04T02:10:15.644Z,10.57
2018-06-04T02:12:44.287Z,11.60
2018-06-04T02:15:12.903Z,11.27
2018-06-04T02:17:41.545Z,11.70
2018-06-04T02:20:10.130Z,11.87
2018-06-04T02:22:38.801Z,12.23
2018-06-04T02:25:07.382Z,11.90
2018-06-04T02:27:36.060Z,11.50
2018-06-04T02:30:05.033Z,11.17
2018-06-04T02:32:33.687Z,11.67
2018-06-04T02:35:02.302Z,12.60
2018-06-04T02:37:30.922Z,13.43
2018-06-04T02:39:59.481Z,12.53
2018-06-04T02:42:28.069Z,12.43
2018-06-04T02:44:56.610Z,11.67
2018-06-04T02:47:25.214Z,12.37
2018-06-04T02:49:53.819Z,12.87
2018-06-04T02:52:22.404Z,12.53
2018-06-04T02:54:50.931Z,13.40
2018-06-04T02:57:19.497Z,12.60
2018-06-04T02:59:48.082Z,12.60
2018-06-04T03:02:16.717Z,12.97
2018-06-04T03:04:45.385Z,11.60
2018-06-04T03:07:14.000Z,13.93
2018-06-04T03:09:42.586Z,13.07
2018-06-04T03:12:11.221Z,12.77
2018-06-04T03:14:39.826Z,13.77
2018-06-04T03:17:08.446Z,12.67
2018-06-04T03:19:37.061Z,13.10
2018-06-04T03:22:05.633Z,14.17
2018-06-04T03:24:34.337Z,12.83
2018-06-04T03:27:02.929Z,12.63
2018-06-04T03:29:31.493Z,13.90
2018-06-04T03:32:00.084Z,13.60
2018-06-04T03:34:28.714Z,12.10
2018-06-04T03:36:57.322Z,12.43
2018-06-04T03:39:25.914Z,11.67
2018-06-04T03:41:54.493Z,11.67
2018-06-04T03:44:23.070Z,12.03
2018-06-04T03:46:51.710Z,11.30
2018-06-04T03:49:20.341Z,11.60
2018-06-04T03:51:48.966Z,11.50
2018-06-04T03:54:17.646Z,11.00
2018-06-04T03:56:46.247Z,11.63
2018-06-04T03:59:14.784Z,11.23
2018-06-04T04:01:43.415Z,10.40
2018-06-04T04:04:12.113Z,10.47
2018-06-04T04:06:40.736Z,10.97
2018-06-04T04:09:09.670Z,9.83
2018-06-04T04:11:38.234Z,10.53
2018-06-04T04:14:06.865Z,10.40
2018-06-04T04:16:37.868Z,10.13
2018-06-04T04:19:06.825Z,10.20
2018-06-04T04:21:35.507Z,9.33
2018-06-04T04:24:04.080Z,10.67
2018-06-04T04:26:32.791Z,9.67
2018-06-04T04:29:01.314Z,9.93
2018-06-04T04:31:29.860Z,9.43
2018-06-04T04:33:58.516Z,9.60
2018-06-04T04:36:27.070Z,9.47
2018-06-04T04:38:55.589Z,9.00
2018-06-04T04:41:24.189Z,10.13
2018-06-04T04:43:52.716Z,9.60
2018-06-04T04:46:21.282Z,9.30
2018-06-04T04:48:49.889Z,9.23
2018-06-04T04:51:18.495Z,9.60
2018-06-04T04:53:47.012Z,8.43
2018-06-04T04:56:15.803Z,9.23
2018-06-04T04:58:44.386Z,9.20
2018-06-04T05:01:12.966Z,9.27
2018-06-04T05:03:41.542Z,9.60
2018-06-04T05:06:10.118Z,8.93
2018-06-04T05:08:38.738Z,8.50
2018-06-04T05:11:07.268Z,8.57
2018-06-04T05:13:35.793Z,9.17
2018-06-04T05:16:04.288Z,9.23
2018-06-04T05:18:32.868Z,9.87
2018-06-04T05:21:01.421Z,9.07
2018-06-04T05:23:30.019Z,9.20
2018-06-04T05:25:58.561Z,9.20
2018-06-04T05:28:27.094Z,8.97
2018-06-04T05:30:55.625Z,8.90
2018-06-04T05:33:24.178Z,8.63
2018-06-04T05:35:52.701Z,7.67
2018-06-04T05:38:21.224Z,9.30
2018-06-04T05:40:49.764Z,8.70
2018-06-04T05:43:18.389Z,9.57
2018-06-04T05:45:47.077Z,8.97
2018-06-04T05:48:15.704Z,8.83
2018-06-04T05:50:44.246Z,8.93
2018-06-04T05:53:12.836Z,9.10
2018-06-04T05:55:41.410Z,8.03
2018-06-04T05:58:09.993Z,8.67
2018-06-04T06:00:38.542Z,8.87
2018-06-04T06:03:07.229Z,8.47
2018-06-04T06:05:35.947Z,8.60
2018-06-04T06:08:04.612Z,8.85
2018-06-04T06:10:33.240Z,9.50
2018-06-04T06:13:01.765Z,8.55
2018-06-04T06:15:30.417Z,8.75
2018-06-04T06:17:59.022Z,8.00
2018-06-04T06:20:27.577Z,8.03
2018-06-04T06:22:56.155Z,7.80
2018-06-04T06:25:24.768Z,7.95
2018-06-04T06:27:53.350Z,7.95
2018-06-04T06:30:22.006Z,8.05
2018-06-04T06:32:50.551Z,7.10
2018-06-04T06:35:19.277Z,7.62
2018-06-04T06:37:47.874Z,7.22
2018-06-04T06:40:16.558Z,7.35
2018-06-04T06:42:45.100Z,7.15
2018-06-04T06:45:13.747Z,6.85
2018-06-04T06:47:42.343Z,6.55
2018-06-04T06:50:11.275Z,6.90
2018-06-04T06:52:39.902Z,6.70
2018-06-04T06:55:08.471Z,7.12
2018-06-04T06:57:37.038Z,6.50
2018-06-04T07:00:05.645Z,6.67
2018-06-04T07:02:34.261Z,7.05
2018-06-04T07:05:02.851Z,7.37
2018-06-04T07:07:31.419Z,6.60
2018-06-04T07:09:59.994Z,6.58
2018-06-04T07:12:28.509Z,6.90
2018-06-04T07:14:57.051Z,7.67
2018-06-04T07:17:25.685Z,7.20
2018-06-04T07:19:54.464Z,6.83
2018-06-04T07:22:23.029Z,7.00
2018-06-04T07:24:51.560Z,7.28
2018-06-04T07:27:20.637Z,6.83
2018-06-04T07:29:49.505Z,7.30
2018-06-04T07:32:18.156Z,7.30
2018-06-04T07:34:47.326Z,7.05
2018-06-04T07:37:16.011Z,7.58
2018-06-04T07:39:44.553Z,7.12
2018-06-04T07:42:13.277Z,7.20
2018-06-04T07:44:41.833Z,6.85
2018-06-04T07:47:10.387Z,7.55
2018-06-04T07:49:39.015Z,6.97
2018-06-04T07:52:07.621Z,6.58
2018-06-04T07:54:36.289Z,7.12
2018-06-04T07:57:04.984Z,7.72
2018-06-04T07:59:33.482Z,8.05
2018-06-04T08:02:02.080Z,7.53
2018-06-04T08:04:30.625Z,8.15
2018-06-04T08:06:59.186Z,7.67
2018-06-04T08:09:27.767Z,7.15
2018-06-04T08:11:56.291Z,7.15
2018-06-04T08:14:24.817Z,7.42
2018-06-04T08:16:53.326Z,6.87
2018-06-04T08:19:21.960Z,7.22
2018-06-04T08:21:50.559Z,6.90
2018-06-04T08:24:19.174Z,6.70
2018-06-04T08:26:47.693Z,7.15
2018-06-04T08:29:16.268Z,6.58
2018-06-04T08:31:44.763Z,6.72
2018-06-04T08:34:13.293Z,6.47
2018-06-04T08:36:41.800Z,6.33
2018-06-04T08:39:10.342Z,6.80
2018-06-04T08:41:38.849Z,7.15
2018-06-04T08:44:07.389Z,6.12
2018-06-04T08:46:35.939Z,5.92
2018-06-04T08:49:04.519Z,6.42
2018-06-04T08:51:33.224Z,6.22
2018-06-04T08:54:01.761Z,6.20
2018-06-04T08:56:30.274Z,6.10
2018-06-04T08:58:58.826Z,5.50
2018-06-04T09:01:27.341Z,6.17
2018-06-04T09:03:55.902Z,5.70
2018-06-04T09:06:24.555Z,6.08
2018-06-04T09:08:54.084Z,5.80
2018-06-04T09:11:22.590Z,5.85
2018-06-04T09:13:51.110Z,5.97
2018-06-04T09:16:19.694Z,6.10
2018-06-04T09:18:48.227Z,6.08
2018-06-04T09:21:16.806Z,6.60
2018-06-04T09:23:45.373Z,6.67
2018-06-04T09:26:13.894Z,6.03
2018-06-04T09:28:42.426Z,5.65
2018-06-04T09:31:10.921Z,5.87
2018-06-04T09:33:39.500Z,6.20
2018-06-04T09:36:08.072Z,6.65
2018-06-04T09:38:37.886Z,5.72
2018-06-04T09:41:06.556Z,5.70
2018-06-04T09:43:35.103Z,5.25
2018-06-04T09:46:03.743Z,5.72
2018-06-04T09:48:32.240Z,5.10
2018-06-04T09:51:00.774Z,5.30
2018-06-04T09:53:29.277Z,6.00
2018-06-04T09:55:57.785Z,5.30
2018-06-04T09:58:26.337Z,5.10
2018-06-04T10:00:54.878Z,5.12
2018-06-04T10:03:23.395Z,4.70
2018-06-04T10:05:52.121Z,5.20
2018-06-04T10:08:20.625Z,5.50
2018-06-04T10:10:49.111Z,5.83
2018-06-04T10:13:17.682Z,5.17
2018-06-04T10:15:46.225Z,5.00
2018-06-04T10:18:14.969Z,5.22
2018-06-04T10:20:44.145Z,5.80
2018-06-04T10:23:12.703Z,5.30
2018-06-04T10:25:41.187Z,5.60
2018-06-04T10:28:09.702Z,5.30
2018-06-04T10:30:38.195Z,5.33
2018-06-04T10:33:06.763Z,5.10
2018-06-04T10:35:35.419Z,4.87
2018-06-04T10:38:03.958Z,4.78
2018-06-04T10:40:32.583Z,4.67
2018-06-04T10:43:01.247Z,5.12
2018-06-04T10:45:29.772Z,5.03
2018-06-04T10:47:58.301Z,4.28
2018-06-04T10:50:26.806Z,5.10
2018-06-04T10:52:55.359Z,5.62
2018-06-04T10:55:23.938Z,5.58
2018-06-04T10:57:52.451Z,5.55
2018-06-04T11:00:20.973Z,5.45
2018-06-04T11:02:49.481Z,5.10
2018-06-04T11:05:18.005Z,5.47
2018-06-04T11:07:46.712Z,5.00
2018-06-04T11:10:15.489Z,4.80
2018-06-04T11:12:44.229Z,5.03
2018-06-04T11:15:12.898Z,5.20
2018-06-04T11:17:41.581Z,5.03
2018-06-04T11:20:10.276Z,5.63
2018-06-04T11:22:38.908Z,5.30
2018-06-04T11:25:07.557Z,5.40
2018-06-04T11:27:37.264Z,5.30
2018-06-04T11:30:06.047Z,5.30
2018-06-04T11:32:34.764Z,4.90
2018-06-04T11:35:03.546Z,4.70
2018-06-04T11:37:32.456Z,5.67
2018-06-04T11:40:01.169Z,5.53
2018-06-04T11:42:29.802Z,4.60
2018-06-04T11:44:58.577Z,5.03
2018-06-04T11:47:27.301Z,5.10
2018-06-04T11:49:56.038Z,5.33
2018-06-04T11:52:24.957Z,5.10
2018-06-04T11:54:53.609Z,5.10
2018-06-04T11:57:22.304Z,5.00
2018-06-04T11:59:51.033Z,4.57
2018-06-04T12:02:19.781Z,5.13
2018-06-04T12:04:48.402Z,4.80
2018-06-04T12:07:17.164Z,4.80
2018-06-04T12:09:45.843Z,4.80
2018-06-04T12:12:14.473Z,5.10
2018-06-04T12:14:43.090Z,5.03
2018-06-04T12:17:11.781Z,5.30
2018-06-04T12:19:40.453Z,5.53
2018-06-04T12:22:09.136Z,5.60
2018-06-04T12:24:37.858Z,4.30
2018-06-04T12:27:06.592Z,4.33
2018-06-04T12:29:35.271Z,4.20
2018-06-04T12:32:04.075Z,4.50
2018-06-04T12:34:32.589Z,4.20
2018-06-04T12:37:01.149Z,4.70
2018-06-04T12:39:29.663Z,4.37
2018-06-04T12:41:58.257Z,4.90
2018-06-04T12:44:26.860Z,4.73
2018-06-04T12:46:55.405Z,3.33
2018-06-04T12:49:24.008Z,3.90
2018-06-04T12:51:52.549Z,3.67
2018-06-04T12:54:21.143Z,4.13
2018-06-04T12:56:49.660Z,4.20
2018-06-04T12:59:18.234Z,4.70
2018-06-04T13:01:46.757Z,4.20
2018-06-04T13:04:15.377Z,3.93
2018-06-04T13:06:43.903Z,3.80
2018-06-04T13:09:12.426Z,4.27
2018-06-04T13:11:41.048Z,4.13
2018-06-04T13:14:09.569Z,4.17
2018-06-04T13:16:38.134Z,4.80
2018-06-04T13:19:06.679Z,4.20
2018-06-04T13:21:35.210Z,4.17
2018-06-04T13:24:03.830Z,4.63
2018-06-04T13:26:32.364Z,4.03
2018-06-04T13:29:00.952Z,3.80
2018-06-04T13:31:29.439Z,3.90
2018-06-04T13:33:58.017Z,4.20
2018-06-04T13:36:26.527Z,4.60
2018-06-04T13:38:55.168Z,4.20
2018-06-04T13:41:23.798Z,4.70
2018-06-04T13:43:52.312Z,4.27
2018-06-04T13:46:20.798Z,4.37
2018-06-04T13:48:49.357Z,3.97
2018-06-04T13:51:17.966Z,3.60
2018-06-04T13:53:46.495Z,4.20
2018-06-04T13:56:15.033Z,4.90
2018-06-04T13:58:43.688Z,4.93
2018-06-04T14:01:12.233Z,4.90
2018-06-04T14:03:40.908Z,5.90
2018-06-04T14:06:09.665Z,4.60
2018-06-04T14:08:38.304Z,4.60
2018-06-04T14:11:07.338Z,5.20
2018-06-04T14:13:36.030Z,5.10
2018-06-04T14:16:04.850Z,5.33
2018-06-04T14:18:33.648Z,5.30
2018-06-04T14:21:02.285Z,5.50
2018-06-04T14:23:31.110Z,5.70
2018-06-04T14:25:59.984Z,5.23
2018-06-04T14:28:28.714Z,5.30
2018-06-04T14:30:57.473Z,5.50
2018-06-04T14:33:26.196Z,5.33
2018-06-04T14:35:55.032Z,5.27
2018-06-04T14:38:23.784Z,4.83
2018-06-04T14:40:52.505Z,5.20
2018-06-04T14:43:21.318Z,4.70
2018-06-04T14:45:49.973Z,4.47
2018-06-04T14:48:18.624Z,4.70
2018-06-04T14:50:47.289Z,4.60
2018-06-04T14:53:16.174Z,4.37
2018-06-04T14:55:44.872Z,4.30
2018-06-04T14:58:13.537Z,4.43
2018-06-04T15:00:42.276Z,4.90
2018-06-04T15:03:10.925Z,4.90
2018-06-04T15:05:39.788Z,5.00
2018-06-04T15:08:08.410Z,5.23
2018-06-04T15:10:37.179Z,4.67
2018-06-04T15:13:05.976Z,4.87
2018-06-04T15:15:34.652Z,4.33
2018-06-04T15:18:03.335Z,4.40
2018-06-04T15:20:31.930Z,4.67
2018-06-04T15:23:00.586Z,4.47
2018-06-04T15:25:29.251Z,4.83
2018-06-04T15:27:58.153Z,4.43
2018-06-04T15:30:26.984Z,4.77
2018-06-04T15:32:55.785Z,4.33
2018-06-04T15:35:24.489Z,4.57
2018-06-04T15:37:53.317Z,5.17
2018-06-04T15:40:21.936Z,4.77
2018-06-04T15:42:50.986Z,4.40
2018-06-04T15:45:19.641Z,4.37
2018-06-04T15:47:48.398Z,4.90
2018-06-04T15:50:17.071Z,4.37
2018-06-04T15:52:45.709Z,4.63
2018-06-04T15:55:14.508Z,4.73
2018-06-04T15:57:43.046Z,4.93
2018-06-04T16:00:11.554Z,4.37
2018-06-04T16:02:40.112Z,4.70
2018-06-04T16:05:08.979Z,4.40
2018-06-04T16:07:37.497Z,4.83
2018-06-04T16:10:06.029Z,5.17
2018-06-04T16:12:34.554Z,4.50
2018-06-04T16:15:03.094Z,4.67
2018-06-04T16:17:31.594Z,4.53
2018-06-04T16:20:00.152Z,4.83
2018-06-04T16:22:28.671Z,4.53
2018-06-04T16:24:57.192Z,4.77
2018-06-04T16:27:25.685Z,4.93
2018-06-04T16:29:54.228Z,4.70
2018-06-04T16:32:22.745Z,4.87
2018-06-04T16:34:51.297Z,5.00
2018-06-04T16:37:19.866Z,5.03
2018-06-04T16:39:48.356Z,5.10
2018-06-04T16:42:16.868Z,5.23
2018-06-04T16:44:45.454Z,5.33
2018-06-04T16:47:13.912Z,4.63
2018-06-04T16:49:42.419Z,5.20
2018-06-04T16:52:10.916Z,5.03
2018-06-04T16:54:39.444Z,4.87
2018-06-04T16:57:08.962Z,4.30
2018-06-04T16:59:37.561Z,5.17
2018-06-04T17:02:06.201Z,4.87
2018-06-04T17:04:34.717Z,4.87
2018-06-04T17:07:03.204Z,4.97
2018-06-04T17:09:31.697Z,5.20
2018-06-04T17:12:00.209Z,5.10
2018-06-04T17:14:28.694Z,4.70
2018-06-04T17:16:57.208Z,4.87
2018-06-04T17:19:25.724Z,5.13
2018-06-04T17:21:54.265Z,5.00
2018-06-04T17:24:22.776Z,4.70
2018-06-04T17:26:51.305Z,4.60
2018-06-04T17:29:19.792Z,4.70
2018-06-04T17:31:48.310Z,5.13
2018-06-04T17:34:16.816Z,4.97
2018-06-04T17:36:45.329Z,4.73
2018-06-04T17:39:13.907Z,4.87
2018-06-04T17:41:42.466Z,4.73
2018-06-04T17:44:11.025Z,4.77
2018-06-04T17:46:39.625Z,4.57
2018-06-04T17:49:08.220Z,4.87
2018-06-04T17:51:36.881Z,4.60
2018-06-04T17:54:05.436Z,4.57
2018-06-04T17:56:34.000Z,4.90
2018-06-04T17:59:02.501Z,4.70
2018-06-04T18:01:31.042Z,5.37
2018-06-04T18:03:59.573Z,4.70
2018-06-04T18:06:28.072Z,4.73
2018-06-04T18:08:56.650Z,4.63
2018-06-04T18:11:25.288Z,5.43
2018-06-04T18:13:53.873Z,4.97
2018-06-04T18:16:22.370Z,4.90
2018-06-04T18:18:50.937Z,4.70
2018-06-04T18:21:19.479Z,4.80
2018-06-04T18:23:48.051Z,4.83
2018-06-04T18:26:16.723Z,5.43
2018-06-04T18:28:45.291Z,5.73
2018-06-04T18:31:13.864Z,5.47
2018-06-04T18:33:42.425Z,5.67
2018-06-04T18:36:10.966Z,5.80
2018-06-04T18:38:39.498Z,6.03
2018-06-04T18:41:08.005Z,5.93
2018-06-04T18:43:36.553Z,6.63
2018-06-04T18:46:05.057Z,5.70
2018-06-04T18:48:33.612Z,5.00
2018-06-04T18:51:02.150Z,5.67
2018-06-04T18:53:30.769Z,5.80
2018-06-04T18:55:59.289Z,5.13
2018-06-04T18:58:27.813Z,5.27
2018-06-04T19:00:56.323Z,5.33
2018-06-04T19:03:24.917Z,5.40
2018-06-04T19:05:53.478Z,4.83
2018-06-04T19:08:22.014Z,5.03
2018-06-04T19:10:50.611Z,4.87
2018-06-04T19:13:19.151Z,5.10
2018-06-04T19:15:47.739Z,5.23
2018-06-04T19:18:16.295Z,5.40
2018-06-04T19:20:44.873Z,5.37
2018-06-04T19:23:13.410Z,5.43
2018-06-04T19:25:41.961Z,5.30
2018-06-04T19:28:10.481Z,5.47
2018-06-04T19:30:39.023Z,5.60
2018-06-04T19:33:07.845Z,5.50
2018-06-04T19:35:36.345Z,5.60
2018-06-04T19:38:05.025Z,5.50
2018-06-04T19:40:33.633Z,5.43
2018-06-04T19:43:02.181Z,6.13
2018-06-04T19:45:30.761Z,5.63
2018-06-04T19:47:59.245Z,5.37
2018-06-04T19:50:27.845Z,5.10
2018-06-04T19:52:56.410Z,5.87
2018-06-04T19:55:24.963Z,5.40
2018-06-04T19:57:53.518Z,5.90
2018-06-04T20:00:22.012Z,6.07
2018-06-04T20:02:50.627Z,6.57
2018-06-04T20:05:19.151Z,6.10
2018-06-04T20:07:47.736Z,6.63
2018-06-04T20:10:16.273Z,7.27
2018-06-04T20:12:44.885Z,6.57
2018-06-04T20:15:13.411Z,6.40
2018-06-04T20:17:42.019Z,7.20
2018-06-04T20:20:10.593Z,7.00
2018-06-04T20:22:39.145Z,7.73
2018-06-04T20:25:07.708Z,7.83
2018-06-04T20:27:36.245Z,7.97
2018-06-04T20:30:05.196Z,8.40
2018-06-04T20:32:33.740Z,7.30
2018-06-04T20:35:02.495Z,7.73
2018-06-04T20:37:31.269Z,7.17
2018-06-04T20:39:59.908Z,7.53
2018-06-04T20:42:28.606Z,7.53
2018-06-04T20:44:57.469Z,8.30
2018-06-04T20:47:26.408Z,7.63
2018-06-04T20:49:55.132Z,7.33
2018-06-04T20:52:24.003Z,7.17
2018-06-04T20:54:52.780Z,8.13
2018-06-04T20:57:21.706Z,7.43
2018-06-04T20:59:51.493Z,6.83
2018-06-04T21:02:20.351Z,6.87
2018-06-04T21:04:49.256Z,7.37
2018-06-04T21:07:17.902Z,6.57
2018-06-04T21:09:46.610Z,6.97
2018-06-04T21:12:15.240Z,6.47
2018-06-04T21:14:44.061Z,6.63
2018-06-04T21:17:12.796Z,6.20
2018-06-04T21:19:43.431Z,6.47
2018-06-04T21:22:12.311Z,7.17
2018-06-04T21:24:41.023Z,6.53
2018-06-04T21:27:09.698Z,7.30
2018-06-04T21:29:38.486Z,6.80
2018-06-04T21:32:07.079Z,6.77
2018-06-04T21:34:35.729Z,7.13
2018-06-04T21:37:04.434Z,6.90
2018-06-04T21:39:33.226Z,6.77
2018-06-04T21:42:01.883Z,6.50
2018-06-04T21:44:30.635Z,7.03
2018-06-04T21:46:59.471Z,7.57
2018-06-04T21:49:28.098Z,7.03
2018-06-04T21:51:57.622Z,7.27
2018-06-04T21:54:26.332Z,6.97
2018-06-04T21:56:55.244Z,7.27
2018-06-04T21:59:24.007Z,7.20
2018-06-04T22:01:52.764Z,6.60
2018-06-04T22:04:21.673Z,7.03
2018-06-04T22:06:50.399Z,6.43
2018-06-04T22:09:19.074Z,6.50
2018-06-04T22:11:47.893Z,6.67
2018-06-04T22:14:16.583Z,6.93
2018-06-04T22:16:45.405Z,6.87
2018-06-04T22:19:14.181Z,7.20
2018-06-04T22:21:42.894Z,6.67
2018-06-04T22:24:11.913Z,6.83
2018-06-04T22:26:40.630Z,6.37
2018-06-04T22:29:09.330Z,6.73
2018-06-04T22:31:38.129Z,6.40
2018-06-04T22:34:06.880Z,6.80
2018-06-04T22:36:35.625Z,6.20
2018-06-04T22:39:06.809Z,6.30
2018-06-04T22:41:35.533Z,6.33
2018-06-04T22:44:05.605Z,7.23
2018-06-04T22:46:34.237Z,6.60
2018-06-04T22:49:07.439Z,7.23
2018-06-04T22:51:36.444Z,6.73
2018-06-04T22:54:05.176Z,6.67
2018-06-04T22:56:34.058Z,8.00
2018-06-04T22:59:02.872Z,7.60
2018-06-04T23:01:31.434Z,6.90
2018-06-04T23:04:00.151Z,7.63
2018-06-04T23:06:28.865Z,7.50
2018-06-04T23:08:57.460Z,7.67
2018-06-04T23:11:26.099Z,7.67
2018-06-04T23:13:54.958Z,7.37
2018-06-04T23:16:23.624Z,7.10
2018-06-04T23:18:52.233Z,7.43
2018-06-04T23:21:21.138Z,7.30
2018-06-04T23:23:49.837Z,6.90
2018-06-04T23:26:18.554Z,7.30
2018-06-04T23:28:47.323Z,7.27
2018-06-04T23:31:15.977Z,7.33
2018-06-04T23:33:44.703Z,7.50
2018-06-04T23:36:13.500Z,7.37
2018-06-04T23:38:42.248Z,7.47
2018-06-04T23:41:10.948Z,7.80
2018-06-04T23:43:39.791Z,7.73
2018-06-04T23:46:08.457Z,7.63
2018-06-04T23:48:37.148Z,7.83
2018-06-04T23:51:05.932Z,8.60
2018-06-04T23:53:34.654Z,7.70
2018-06-04T23:56:03.251Z,8.07
2018-06-04T23:58:32.266Z,7.73
